createdAt,value
2023-03-16T00:00:06.900Z,-1.08
2023-03-16T00:01:06.913Z,-1.09
2023-03-16T00:02:06.967Z,-1.11
2023-03-16T00:03:06.974Z,-1.10
2023-03-16T00:04:06.957Z,-1.09
2023-03-16T00:05:06.975Z,-1.15
2023-03-16T00:06:06.981Z,-1.16
2023-03-16T00:07:07.004Z,-1.17
2023-03-16T00:08:07.009Z,-1.18
2023-03-16T00:09:07.027Z,-1.18
2023-03-16T00:10:07.051Z,-1.17
2023-03-16T00:11:07.052Z,-1.15
2023-03-16T00:12:07.059Z,-1.19
2023-03-16T00:13:07.064Z,-1.20
2023-03-16T00:14:07.080Z,-1.23
2023-03-16T00:15:07.100Z,-1.25
2023-03-16T00:16:07.127Z,-1.23
2023-03-16T00:17:07.108Z,-1.21
2023-03-16T00:18:07.111Z,-1.20
2023-03-16T00:19:07.130Z,-1.20
2023-03-16T00:20:07.191Z,-1.23
2023-03-16T00:21:07.173Z,-1.29
2023-03-16T00:22:07.179Z,-1.25
2023-03-16T00:23:07.196Z,-1.30
2023-03-16T00:24:07.204Z,-1.30
2023-03-16T00:25:07.218Z,-1.30
2023-03-16T00:26:07.230Z,-1.29
2023-03-16T00:27:07.252Z,-1.31
2023-03-16T00:28:07.256Z,-1.32
2023-03-16T00:29:07.262Z,-1.30
2023-03-16T00:30:07.273Z,-1.28
2023-03-16T00:31:07.289Z,-1.24
2023-03-16T00:32:07.295Z,-1.28
2023-03-16T00:33:07.378Z,-1.30
2023-03-16T00:34:07.313Z,-1.31
2023-03-16T00:35:09.324Z,-1.30
2023-03-16T00:36:07.356Z,-1.32
2023-03-16T00:37:07.407Z,-1.29
2023-03-16T00:38:07.350Z,-1.29
2023-03-16T00:39:07.372Z,-1.30
2023-03-16T00:40:07.376Z,-1.30
2023-03-16T00:41:07.381Z,-1.28
2023-03-16T00:42:07.386Z,-1.32
2023-03-16T00:43:07.405Z,-1.31
2023-03-16T00:44:07.414Z,-1.34
2023-03-16T00:45:07.434Z,-1.28
2023-03-16T00:46:07.479Z,-1.30
2023-03-16T00:47:07.450Z,-1.31
2023-03-16T00:48:07.461Z,-1.30
2023-03-16T00:49:07.488Z,-1.29
2023-03-16T00:50:07.491Z,-1.31
2023-03-16T00:51:07.500Z,-1.31
2023-03-16T00:52:07.513Z,-1.32
2023-03-16T00:53:07.522Z,-1.32
2023-03-16T00:54:07.538Z,-1.34
2023-03-16T00:55:07.543Z,-1.35
2023-03-16T00:56:07.561Z,-1.37
2023-03-16T00:57:07.579Z,-1.34
2023-03-16T00:58:07.577Z,-1.34
2023-03-16T00:59:07.594Z,-1.38
2023-03-16T01:00:07.605Z,-1.40
2023-03-16T01:01:07.710Z,-1.34
2023-03-16T01:02:07.647Z,-1.38
2023-03-16T01:03:07.691Z,-1.39
2023-03-16T01:04:07.666Z,-1.39
2023-03-16T01:05:07.698Z,-1.39
2023-03-16T01:06:07.687Z,-1.38
2023-03-16T01:07:07.699Z,-1.39
2023-03-16T01:08:07.707Z,-1.37
2023-03-16T01:09:07.715Z,-1.40
2023-03-16T01:10:07.728Z,-1.38
2023-03-16T01:11:07.733Z,-1.39
2023-03-16T01:12:07.771Z,-1.37
2023-03-16T01:13:07.779Z,-1.40
2023-03-16T01:14:07.792Z,-1.36
2023-03-16T01:15:07.803Z,-1.36
2023-03-16T01:16:07.818Z,-1.39
2023-03-16T01:17:07.877Z,-1.39
2023-03-16T01:18:07.838Z,-1.41
2023-03-16T01:19:07.858Z,-1.39
2023-03-16T01:20:07.873Z,-1.41
2023-03-16T01:21:07.894Z,-1.43
2023-03-16T01:22:07.907Z,-1.45
2023-03-16T01:23:07.929Z,-1.44
2023-03-16T01:24:07.932Z,-1.47
2023-03-16T01:25:07.943Z,-1.46
2023-03-16T01:26:07.947Z,-1.48
2023-03-16T01:27:07.973Z,-1.51
2023-03-16T01:28:07.970Z,-1.51
2023-03-16T01:29:07.990Z,-1.48
2023-03-16T01:30:07.995Z,-1.51
2023-03-16T01:31:08.102Z,-1.49
2023-03-16T01:49:08.579Z,-1.66
2023-03-16T01:50:08.256Z,-1.66
2023-03-16T01:51:08.279Z,-1.65
2023-03-16T01:52:08.281Z,-1.68
2023-03-16T01:53:08.300Z,-1.71
2023-03-16T01:54:08.310Z,-1.69
2023-03-16T01:55:08.337Z,-1.68
2023-03-16T01:56:08.334Z,-1.69
2023-03-16T01:57:08.358Z,-1.70
2023-03-16T01:58:08.361Z,-1.71
2023-03-16T01:59:08.358Z,-1.72
2023-03-16T02:00:08.384Z,-1.70
2023-03-16T02:01:08.420Z,-1.70
2023-03-16T02:02:08.394Z,-1.72
2023-03-16T02:03:08.418Z,-1.69
2023-03-16T02:04:08.451Z,-1.69
2023-03-16T02:05:08.440Z,-1.69
2023-03-16T02:06:08.454Z,-1.67
2023-03-16T02:07:08.461Z,-1.69
2023-03-16T02:08:08.466Z,-1.71
2023-03-16T02:09:08.476Z,-1.72
2023-03-16T02:10:08.491Z,-1.72
2023-03-16T02:11:08.524Z,-1.67
2023-03-16T02:12:08.519Z,-1.68
2023-03-16T02:13:08.521Z,-1.64
2023-03-16T02:14:08.529Z,-1.65
2023-03-16T02:15:08.539Z,-1.68
2023-03-16T02:16:08.653Z,-1.69
2023-03-16T02:17:08.560Z,-1.68
2023-03-16T02:18:08.570Z,-1.68
2023-03-16T02:19:08.582Z,-1.66
2023-03-16T02:20:08.601Z,-1.67
2023-03-16T02:21:08.602Z,-1.66
2023-03-16T02:22:08.615Z,-1.67
2023-03-16T02:23:08.632Z,-1.66
2023-03-16T02:24:08.631Z,-1.66
2023-03-16T02:25:08.643Z,-1.65
2023-03-16T02:26:08.662Z,-1.67
2023-03-16T02:27:08.672Z,-1.68
2023-03-16T02:28:08.676Z,-1.67
2023-03-16T02:29:08.697Z,-1.69
2023-03-16T02:30:08.717Z,-1.70
2023-03-16T02:31:08.818Z,-1.69
2023-03-16T02:32:08.742Z,-1.69
2023-03-16T02:33:08.748Z,-1.69
2023-03-16T02:34:08.753Z,-1.67
2023-03-16T02:35:08.758Z,-1.66
2023-03-16T02:36:08.836Z,-1.66
2023-03-16T02:37:08.787Z,-1.65
2023-03-16T02:38:08.817Z,-1.63
2023-03-16T02:39:08.809Z,-1.62
2023-03-16T02:40:08.822Z,-1.59
2023-03-16T02:41:08.832Z,-1.59
2023-03-16T02:42:08.841Z,-1.57
2023-03-16T02:43:08.848Z,-1.55
2023-03-16T02:44:08.870Z,-1.52
2023-03-16T02:45:08.886Z,-1.49
2023-03-16T02:46:08.932Z,-1.46
2023-03-16T02:47:08.903Z,-1.44
2023-03-16T02:48:08.923Z,-1.39
2023-03-16T02:49:08.934Z,-1.35
2023-03-16T02:50:08.953Z,-1.32
2023-03-16T02:51:08.958Z,-1.31
2023-03-16T02:52:08.974Z,-1.29
2023-03-16T02:53:08.985Z,-1.26
2023-03-16T02:54:08.991Z,-1.22
2023-03-16T02:55:09.003Z,-1.23
2023-03-16T02:56:09.013Z,-1.21
2023-03-16T02:57:09.033Z,-1.20
2023-03-16T02:58:09.038Z,-1.17
2023-03-16T02:59:09.052Z,-1.15
2023-03-16T03:00:09.061Z,-1.15
2023-03-16T03:01:09.091Z,-1.12
2023-03-16T03:02:11.131Z,-1.10
2023-03-16T03:03:09.105Z,-1.11
2023-03-16T03:04:09.108Z,-1.14
2023-03-16T03:05:09.130Z,-1.14
2023-03-16T03:06:09.147Z,-1.13
2023-03-16T03:07:09.171Z,-1.11
2023-03-16T03:08:09.190Z,-1.13
2023-03-16T03:09:09.200Z,-1.10
2023-03-16T03:10:09.208Z,-1.12
2023-03-16T03:11:09.216Z,-1.09
2023-03-16T03:12:09.222Z,-1.07
2023-03-16T03:13:09.228Z,-1.06
2023-03-16T03:14:09.247Z,-1.05
2023-03-16T03:15:09.257Z,-1.05
2023-03-16T03:16:09.299Z,-1.03
2023-03-16T03:17:09.282Z,-1.02
2023-03-16T03:18:09.289Z,-0.97
2023-03-16T03:19:09.292Z,-0.99
2023-03-16T03:20:09.300Z,-1.01
2023-03-16T03:21:09.306Z,-0.99
2023-03-16T03:22:09.314Z,-0.99
2023-03-16T03:23:09.324Z,-0.96
2023-03-16T03:24:09.331Z,-0.93
2023-03-16T03:25:09.360Z,-0.94
2023-03-16T03:26:09.365Z,-0.97
2023-03-16T03:27:09.366Z,-0.97
2023-03-16T03:28:09.502Z,-0.95
2023-03-16T03:29:09.381Z,-0.96
2023-03-16T03:30:09.385Z,-0.92
2023-03-16T03:31:09.435Z,-0.92
2023-03-16T03:32:09.406Z,-0.90
2023-03-16T03:33:09.475Z,-0.90
2023-03-16T03:34:09.428Z,-0.89
2023-03-16T03:35:09.429Z,-0.89
2023-03-16T03:36:09.434Z,-0.86
2023-03-16T03:37:09.458Z,-0.84
2023-03-16T03:38:09.457Z,-0.80
2023-03-16T03:39:09.466Z,-0.82
2023-03-16T03:40:09.472Z,-0.78
2023-03-16T03:41:09.481Z,-0.81
2023-03-16T03:42:09.485Z,-0.79
2023-03-16T03:43:09.492Z,-0.77
2023-03-16T03:44:09.496Z,-0.76
2023-03-16T03:45:09.502Z,-0.75
2023-03-16T03:46:09.632Z,-0.73
2023-03-16T03:47:09.555Z,-0.75
2023-03-16T03:48:09.544Z,-0.76
2023-03-16T03:49:09.548Z,-0.79
2023-03-16T03:50:09.537Z,-0.79
2023-03-16T03:51:09.545Z,-0.81
2023-03-16T03:52:09.562Z,-0.86
2023-03-16T03:53:09.561Z,-0.88
2023-03-16T03:54:09.562Z,-0.90
2023-03-16T03:55:09.571Z,-0.93
2023-03-16T03:56:09.579Z,-0.94
2023-03-16T03:57:09.584Z,-0.96
2023-03-16T03:58:09.586Z,-0.98
2023-03-16T03:59:09.593Z,-0.99
2023-03-16T04:00:09.596Z,-1.00
2023-03-16T04:01:09.604Z,-0.99
2023-03-16T04:02:09.778Z,-0.99
2023-03-16T04:03:09.813Z,-0.99
2023-03-16T04:04:09.621Z,-0.96
2023-03-16T04:05:09.637Z,-0.94
2023-03-16T04:06:09.634Z,-0.95
2023-03-16T04:07:09.643Z,-0.91
2023-03-16T04:08:09.648Z,-0.90
2023-03-16T04:09:09.651Z,-0.88
2023-03-16T04:10:09.657Z,-0.86
2023-03-16T04:11:09.667Z,-0.84
2023-03-16T04:12:09.673Z,-0.83
2023-03-16T04:13:09.683Z,-0.81
2023-03-16T04:14:09.693Z,-0.78
2023-03-16T04:15:09.700Z,-0.75
2023-03-16T04:16:09.708Z,-0.75
2023-03-16T04:17:09.719Z,-0.73
2023-03-16T04:18:09.729Z,-0.71
2023-03-16T04:19:09.736Z,-0.68
2023-03-16T04:20:09.741Z,-0.67
2023-03-16T04:21:09.752Z,-0.67
2023-03-16T04:22:09.753Z,-0.66
2023-03-16T04:23:09.760Z,-0.66
2023-03-16T04:24:09.764Z,-0.64
2023-03-16T04:25:11.402Z,-0.65
2023-03-16T04:26:09.780Z,-0.63
2023-03-16T04:27:09.804Z,-0.65
2023-03-16T04:28:09.802Z,-0.65
2023-03-16T04:29:09.809Z,-0.65
2023-03-16T04:30:09.835Z,-0.64
2023-03-16T04:31:09.852Z,-0.67
2023-03-16T04:32:09.828Z,-0.64
2023-03-16T04:33:09.889Z,-0.62
2023-03-16T04:34:09.845Z,-0.65
2023-03-16T04:35:09.851Z,-0.63
2023-03-16T04:36:09.941Z,-0.62
2023-03-16T04:37:09.860Z,-0.62
2023-03-16T04:38:09.866Z,-0.59
2023-03-16T04:39:09.885Z,-0.61
2023-03-16T04:40:10.968Z,-0.62
2023-03-16T04:41:09.889Z,-0.63
2023-03-16T04:42:09.892Z,-0.63
2023-03-16T04:43:09.894Z,-0.62
2023-03-16T04:44:09.905Z,-0.62
2023-03-16T04:45:09.943Z,-0.60
2023-03-16T04:46:09.944Z,-0.61
2023-03-16T04:47:09.937Z,-0.59
2023-03-16T04:48:09.943Z,-0.56
2023-03-16T04:49:09.969Z,-0.52
2023-03-16T04:50:09.948Z,-0.49
2023-03-16T04:51:09.956Z,-0.47
2023-03-16T04:52:09.969Z,-0.46
2023-03-16T04:53:09.971Z,-0.43
2023-03-16T04:54:09.986Z,-0.41
2023-03-16T04:55:09.990Z,-0.41
2023-03-16T04:56:09.994Z,-0.41
2023-03-16T04:57:09.997Z,-0.41
2023-03-16T04:58:10.005Z,-0.40
2023-03-16T04:59:10.014Z,-0.38
2023-03-16T05:00:10.024Z,-0.39
2023-03-16T05:01:10.059Z,-0.37
2023-03-16T05:02:10.040Z,-0.33
2023-03-16T05:03:10.040Z,-0.33
2023-03-16T05:04:11.629Z,-0.32
2023-03-16T05:05:10.156Z,-0.32
2023-03-16T05:06:10.069Z,-0.32
2023-03-16T05:07:10.062Z,-0.31
2023-03-16T05:08:10.067Z,-0.30
2023-03-16T05:09:10.071Z,-0.27
2023-03-16T05:10:10.078Z,-0.30
2023-03-16T05:11:10.082Z,-0.28
2023-03-16T05:12:10.089Z,-0.29
2023-03-16T05:13:10.095Z,-0.26
2023-03-16T05:14:10.098Z,-0.27
2023-03-16T05:15:10.109Z,-0.27
2023-03-16T05:16:10.139Z,-0.25
2023-03-16T05:17:10.120Z,-0.29
2023-03-16T05:18:10.126Z,-0.29
2023-03-16T05:19:10.134Z,-0.28
2023-03-16T05:20:10.148Z,-0.27
2023-03-16T05:21:10.151Z,-0.29
2023-03-16T05:22:10.189Z,-0.30
2023-03-16T05:23:10.166Z,-0.27
2023-03-16T05:24:10.172Z,-0.30
2023-03-16T05:25:10.178Z,-0.27
2023-03-16T05:26:10.184Z,-0.26
2023-03-16T05:27:10.193Z,-0.23
2023-03-16T05:28:10.198Z,-0.22
2023-03-16T05:29:10.203Z,-0.24
2023-03-16T05:30:10.208Z,-0.22
2023-03-16T05:31:10.310Z,-0.23
2023-03-16T05:32:10.219Z,-0.24
2023-03-16T05:33:10.319Z,-0.26
2023-03-16T05:34:10.233Z,-0.27
2023-03-16T05:35:10.239Z,-0.30
2023-03-16T05:36:10.281Z,-0.34
2023-03-16T05:37:10.248Z,-0.35
2023-03-16T05:38:10.255Z,-0.36
2023-03-16T05:39:10.263Z,-0.38
2023-03-16T05:40:10.271Z,-0.41
2023-03-16T05:41:10.277Z,-0.43
2023-03-16T05:42:10.287Z,-0.43
2023-03-16T05:43:10.287Z,-0.45
2023-03-16T05:44:10.294Z,-0.44
2023-03-16T05:45:10.299Z,-0.43
2023-03-16T05:46:10.337Z,-0.43
2023-03-16T05:47:10.320Z,-0.40
2023-03-16T05:48:10.330Z,-0.41
2023-03-16T05:49:10.330Z,-0.38
2023-03-16T05:50:10.338Z,-0.35
2023-03-16T05:51:10.345Z,-0.35
2023-03-16T05:52:10.352Z,-0.31
2023-03-16T05:53:10.360Z,-0.28
2023-03-16T05:54:10.367Z,-0.25
2023-03-16T05:55:10.379Z,-0.24
2023-03-16T05:56:10.385Z,-0.20
2023-03-16T05:57:10.391Z,-0.18
2023-03-16T05:58:10.396Z,-0.13
2023-03-16T05:59:10.413Z,-0.13
2023-03-16T06:00:10.417Z,-0.10
2023-03-16T06:01:10.417Z,-0.06
2023-03-16T06:02:10.424Z,-0.03
2023-03-16T06:03:10.520Z,0.01
2023-03-16T06:04:10.486Z,0.03
2023-03-16T06:05:10.445Z,0.07
2023-03-16T06:06:10.450Z,0.10
2023-03-16T06:07:10.464Z,0.14
2023-03-16T06:08:10.480Z,0.15
2023-03-16T06:09:10.494Z,0.20
2023-03-16T06:10:10.504Z,0.19
2023-03-16T06:11:10.482Z,0.20
2023-03-16T06:12:10.502Z,0.22
2023-03-16T06:13:10.496Z,0.25
2023-03-16T06:14:10.500Z,0.25
2023-03-16T06:15:10.504Z,0.28
2023-03-16T06:16:10.599Z,0.30
2023-03-16T06:17:10.521Z,0.33
2023-03-16T06:18:10.526Z,0.37
2023-03-16T06:19:10.532Z,0.41
2023-03-16T06:20:10.541Z,0.41
2023-03-16T06:21:10.542Z,0.43
2023-03-16T06:22:10.653Z,0.43
2023-03-16T06:23:10.552Z,0.44
2023-03-16T06:24:10.557Z,0.46
2023-03-16T06:25:10.563Z,0.50
2023-03-16T06:26:10.595Z,0.50
2023-03-16T06:27:10.586Z,0.53
2023-03-16T06:28:10.598Z,0.57
2023-03-16T06:29:10.607Z,0.60
2023-03-16T06:30:10.612Z,0.66
2023-03-16T06:31:10.657Z,0.72
2023-03-16T06:32:10.633Z,0.76
2023-03-16T06:33:10.742Z,0.80
2023-03-16T06:34:10.645Z,0.86
2023-03-16T06:35:10.664Z,0.92
2023-03-16T06:36:10.744Z,0.95
2023-03-16T06:37:10.664Z,0.96
2023-03-16T06:38:10.671Z,1.00
2023-03-16T06:39:10.681Z,1.05
2023-03-16T06:40:10.736Z,1.09
2023-03-16T06:41:10.744Z,1.15
2023-03-16T06:42:10.741Z,1.19
2023-03-16T06:43:10.710Z,1.24
2023-03-16T06:44:10.717Z,1.28
2023-03-16T06:45:10.725Z,1.32
2023-03-16T06:46:10.751Z,1.33
2023-03-16T06:47:10.761Z,1.37
2023-03-16T06:48:10.742Z,1.42
2023-03-16T06:49:10.750Z,1.45
2023-03-16T06:50:10.764Z,1.47
2023-03-16T06:51:10.761Z,1.49
2023-03-16T06:52:10.765Z,1.52
2023-03-16T06:53:10.773Z,1.54
2023-03-16T06:54:10.779Z,1.57
2023-03-16T06:55:10.785Z,1.59
2023-03-16T06:56:10.799Z,1.62
2023-03-16T06:57:10.798Z,1.66
2023-03-16T06:58:10.811Z,1.70
2023-03-16T06:59:10.811Z,1.73
2023-03-16T07:00:10.816Z,1.79
2023-03-16T07:01:10.937Z,1.86
2023-03-16T07:02:10.829Z,1.88
2023-03-16T07:03:10.842Z,1.95
2023-03-16T07:04:10.903Z,1.96
2023-03-16T07:05:10.846Z,1.99
2023-03-16T07:06:10.853Z,2.02
2023-03-16T07:07:10.864Z,2.05
2023-03-16T07:08:10.866Z,2.07
2023-03-16T07:09:10.871Z,2.11
2023-03-16T07:10:10.883Z,2.18
2023-03-16T07:11:10.884Z,2.21
2023-03-16T07:12:10.895Z,2.22
2023-03-16T07:13:10.897Z,2.26
2023-03-16T07:14:10.905Z,2.27
2023-03-16T07:15:10.914Z,2.30
2023-03-16T07:16:10.934Z,2.31
2023-03-16T07:17:10.920Z,2.32
2023-03-16T07:18:10.924Z,2.38
2023-03-16T07:19:10.936Z,2.42
2023-03-16T07:20:10.937Z,2.41
2023-03-16T07:21:10.949Z,2.48
2023-03-16T07:22:10.958Z,2.50
2023-03-16T07:23:10.955Z,2.57
2023-03-16T07:24:10.976Z,2.62
2023-03-16T07:25:10.973Z,2.67
2023-03-16T07:26:10.977Z,2.73
2023-03-16T07:27:12.467Z,2.80
2023-03-16T07:28:10.995Z,2.86
2023-03-16T07:29:10.993Z,2.90
2023-03-16T07:30:11.001Z,2.96
2023-03-16T07:31:11.010Z,3.00
2023-03-16T07:32:11.092Z,3.05
2023-03-16T07:33:11.077Z,3.10
2023-03-16T07:34:11.027Z,3.14
2023-03-16T07:35:11.034Z,3.18
2023-03-16T07:36:11.153Z,3.23
2023-03-16T07:37:11.056Z,3.32
2023-03-16T07:38:11.055Z,3.37
2023-03-16T07:39:11.061Z,3.36
2023-03-16T07:40:11.065Z,3.43
2023-03-16T07:41:11.082Z,3.45
2023-03-16T07:42:11.078Z,3.47
2023-03-16T07:43:11.086Z,3.50
2023-03-16T07:44:11.094Z,3.55
2023-03-16T07:45:11.098Z,3.56
2023-03-16T07:46:11.144Z,3.57
2023-03-16T07:47:11.115Z,3.59
2023-03-16T07:48:11.124Z,3.60
2023-03-16T07:49:11.126Z,3.60
2023-03-16T07:50:11.128Z,3.64
2023-03-16T07:51:11.136Z,3.68
2023-03-16T07:52:11.145Z,3.73
2023-03-16T07:53:11.161Z,3.73
2023-03-16T07:54:11.154Z,3.75
2023-03-16T07:55:11.159Z,3.76
2023-03-16T07:56:11.166Z,3.77
2023-03-16T07:57:11.178Z,3.82
2023-03-16T07:58:11.270Z,3.80
2023-03-16T07:59:11.206Z,3.85
2023-03-16T08:00:11.194Z,3.84
2023-03-16T08:01:11.212Z,3.86
2023-03-16T08:02:11.230Z,3.91
2023-03-16T08:03:11.250Z,3.91
2023-03-16T08:04:11.221Z,3.92
2023-03-16T08:05:11.265Z,3.96
2023-03-16T08:06:11.228Z,3.97
2023-03-16T08:07:11.241Z,4.00
2023-03-16T08:08:11.243Z,4.04
2023-03-16T08:09:11.285Z,4.08
2023-03-16T08:10:11.251Z,4.10
2023-03-16T08:11:11.287Z,4.13
2023-03-16T08:12:11.267Z,4.18
2023-03-16T08:13:11.284Z,4.21
2023-03-16T08:14:11.275Z,4.24
2023-03-16T08:15:11.279Z,4.24
2023-03-16T08:16:11.363Z,4.23
2023-03-16T08:17:11.294Z,4.25
2023-03-16T08:18:11.302Z,4.32
2023-03-16T08:19:11.311Z,4.31
2023-03-16T08:20:11.341Z,4.41
2023-03-16T08:21:11.320Z,4.45
2023-03-16T08:22:11.323Z,4.51
2023-03-16T08:23:11.332Z,4.56
2023-03-16T08:24:11.335Z,4.63
2023-03-16T08:25:11.341Z,4.65
2023-03-16T08:26:11.350Z,4.70
2023-03-16T08:27:11.356Z,4.77
2023-03-16T08:28:11.372Z,4.81
2023-03-16T08:29:11.500Z,4.84
2023-03-16T08:30:11.395Z,4.88
2023-03-16T08:31:11.449Z,4.95
2023-03-16T08:32:11.387Z,4.98
2023-03-16T08:33:11.476Z,4.99
2023-03-16T08:34:11.409Z,5.03
2023-03-16T08:35:11.416Z,5.09
2023-03-16T08:36:11.452Z,5.11
2023-03-16T08:37:11.442Z,5.11
2023-03-16T08:38:11.454Z,5.11
2023-03-16T08:39:12.126Z,5.11
2023-03-16T08:40:11.450Z,5.13
2023-03-16T08:41:11.465Z,5.19
2023-03-16T08:42:11.516Z,5.23
2023-03-16T08:43:11.512Z,5.25
2023-03-16T08:44:11.480Z,5.26
2023-03-16T08:45:13.902Z,5.26
2023-03-16T08:46:11.538Z,5.27
2023-03-16T08:47:11.506Z,5.23
2023-03-16T08:48:11.506Z,5.27
2023-03-16T08:49:11.515Z,5.29
2023-03-16T08:50:11.523Z,5.23
2023-03-16T08:51:11.539Z,5.20
2023-03-16T08:52:11.532Z,5.19
2023-03-16T08:53:11.542Z,5.18
2023-03-16T08:54:11.547Z,5.12
2023-03-16T08:55:11.576Z,5.12
2023-03-16T08:56:11.561Z,5.09
2023-03-16T08:57:11.567Z,5.12
2023-03-16T08:58:11.571Z,5.09
2023-03-16T08:59:23.507Z,5.05
2023-03-16T09:00:11.588Z,5.08
2023-03-16T09:01:11.600Z,5.06
2023-03-16T09:02:11.659Z,5.07
2023-03-16T09:03:11.616Z,5.10
2023-03-16T09:04:11.682Z,5.09
2023-03-16T09:05:11.619Z,5.11
2023-03-16T09:06:11.625Z,5.11
2023-03-16T09:07:11.634Z,5.10
2023-03-16T09:08:11.642Z,5.12
2023-03-16T09:09:11.645Z,5.14
2023-03-16T09:10:11.657Z,5.19
2023-03-16T09:11:11.659Z,5.22
2023-03-16T09:12:11.665Z,5.27
2023-03-16T09:13:11.690Z,5.31
2023-03-16T09:14:11.679Z,5.36
2023-03-16T09:15:11.690Z,5.44
2023-03-16T09:16:11.741Z,5.50
2023-03-16T09:17:11.989Z,5.54
2023-03-16T09:18:11.705Z,5.62
2023-03-16T09:19:11.708Z,5.70
2023-03-16T09:21:11.722Z,5.86
2023-03-16T09:22:11.728Z,5.91
2023-03-16T09:23:11.772Z,5.96
2023-03-16T09:24:11.744Z,6.02
2023-03-16T09:25:11.751Z,6.08
2023-03-16T09:26:11.755Z,6.11
2023-03-16T09:27:11.873Z,6.17
2023-03-16T09:28:11.773Z,6.21
2023-03-16T09:29:11.774Z,6.25
2023-03-16T09:30:11.783Z,6.28
2023-03-16T09:31:11.827Z,6.31
2023-03-16T09:32:11.833Z,6.36
2023-03-16T09:33:11.930Z,6.38
2023-03-16T09:34:11.818Z,6.40
2023-03-16T09:35:11.825Z,6.41
2023-03-16T09:36:11.954Z,6.42
2023-03-16T09:37:11.834Z,6.46
2023-03-16T09:38:11.842Z,6.45
2023-03-16T09:39:11.874Z,6.47
2023-03-16T09:40:12.176Z,6.45
2023-03-16T09:41:11.860Z,6.49
2023-03-16T09:42:11.866Z,6.53
2023-03-16T09:43:11.876Z,6.53
2023-03-16T09:44:11.882Z,6.52
2023-03-16T09:45:11.891Z,6.54
2023-03-16T09:46:11.936Z,6.53
2023-03-16T09:47:11.908Z,6.56
2023-03-16T09:48:11.910Z,6.59
2023-03-16T09:49:11.914Z,6.61
2023-03-16T09:50:11.937Z,6.60
2023-03-16T09:51:11.993Z,6.59
2023-03-16T09:52:11.950Z,6.61
2023-03-16T09:53:11.943Z,6.63
2023-03-16T09:54:11.948Z,6.63
2023-03-16T09:55:11.957Z,6.66
2023-03-16T09:56:11.968Z,6.67
2023-03-16T09:57:11.972Z,6.70
2023-03-16T09:58:11.983Z,6.71
2023-03-16T09:59:11.990Z,6.77
2023-03-16T10:00:12.004Z,6.83
2023-03-16T10:01:12.052Z,6.88
2023-03-16T10:02:12.023Z,6.95
2023-03-16T10:03:12.025Z,7.03
2023-03-16T10:04:12.057Z,7.12
2023-03-16T10:05:12.043Z,7.18
2023-03-16T10:06:12.050Z,7.23
2023-03-16T10:07:12.054Z,7.30
2023-03-16T10:08:12.061Z,7.37
2023-03-16T10:09:12.070Z,7.43
2023-03-16T10:10:12.076Z,7.49
2023-03-16T10:11:12.089Z,7.58
2023-03-16T10:12:12.088Z,7.68
2023-03-16T10:13:12.096Z,7.77
2023-03-16T10:14:12.114Z,7.87
2023-03-16T10:15:12.159Z,7.96
2023-03-16T10:16:12.208Z,8.06
2023-03-16T10:17:12.120Z,8.16
2023-03-16T10:18:13.441Z,8.28
2023-03-16T10:19:12.134Z,8.39
2023-03-16T10:20:12.139Z,8.51
2023-03-16T10:21:12.145Z,8.55
2023-03-16T10:22:12.153Z,8.64
2023-03-16T10:23:12.168Z,8.75
2023-03-16T10:24:12.179Z,8.78
2023-03-16T10:25:12.172Z,8.84
2023-03-16T10:26:12.184Z,8.84
2023-03-16T10:27:12.186Z,8.88
2023-03-16T10:28:12.194Z,8.92
2023-03-16T10:29:12.197Z,8.95
2023-03-16T10:30:12.202Z,8.96
2023-03-16T10:31:12.261Z,9.02
2023-03-16T10:32:12.218Z,9.08
2023-03-16T10:33:12.353Z,9.10
2023-03-16T10:34:12.232Z,9.13
2023-03-16T10:35:12.236Z,9.20
2023-03-16T10:36:12.279Z,9.21
2023-03-16T10:37:12.279Z,9.30
2023-03-16T10:38:12.861Z,9.33
2023-03-16T10:39:12.263Z,9.30
2023-03-16T10:40:12.267Z,9.32
2023-03-16T10:41:12.281Z,9.30
2023-03-16T10:42:12.285Z,9.36
2023-03-16T10:43:12.293Z,9.39
2023-03-16T10:44:12.400Z,9.44
2023-03-16T10:45:12.310Z,9.44
2023-03-16T10:46:14.746Z,9.51
2023-03-16T10:47:12.379Z,9.52
2023-03-16T10:48:12.330Z,9.56
2023-03-16T10:49:12.337Z,9.59
2023-03-16T10:50:12.346Z,9.59
2023-03-16T10:51:12.371Z,9.67
2023-03-16T10:52:12.362Z,9.73
2023-03-16T10:53:12.369Z,9.79
2023-03-16T10:54:12.377Z,9.81
2023-03-16T10:55:12.381Z,9.83
2023-03-16T10:56:12.387Z,9.88
2023-03-16T10:57:12.393Z,9.94
2023-03-16T10:58:12.398Z,10.03
2023-03-16T10:59:12.433Z,10.03
2023-03-16T11:00:12.420Z,10.04
2023-03-16T11:01:12.434Z,10.10
2023-03-16T11:02:12.435Z,10.15
2023-03-16T11:03:12.441Z,10.16
2023-03-16T11:04:12.528Z,10.21
2023-03-16T11:05:12.460Z,10.27
2023-03-16T11:06:12.469Z,10.23
2023-03-16T11:07:12.471Z,10.23
2023-03-16T11:08:12.513Z,10.23
2023-03-16T11:09:12.490Z,10.20
2023-03-16T11:10:12.499Z,10.22
2023-03-16T11:11:12.504Z,10.28
2023-03-16T11:12:12.512Z,10.27
2023-03-16T11:13:12.520Z,10.27
2023-03-16T11:14:12.525Z,10.23
2023-03-16T11:15:20.050Z,10.27
2023-03-16T11:16:12.570Z,10.31
2023-03-16T11:17:12.615Z,10.40
2023-03-16T11:18:12.560Z,10.44
2023-03-16T11:19:12.572Z,10.44
2023-03-16T11:20:12.577Z,10.51
2023-03-16T11:21:12.581Z,10.54
2023-03-16T11:22:12.653Z,10.66
2023-03-16T11:23:12.594Z,10.74
2023-03-16T11:24:12.601Z,10.78
2023-03-16T11:25:12.615Z,10.90
2023-03-16T11:26:12.620Z,11.01
2023-03-16T11:27:12.640Z,11.04
2023-03-16T11:28:12.698Z,11.11
2023-03-16T11:29:12.658Z,11.10
2023-03-16T11:30:12.666Z,11.11
2023-03-16T11:31:12.713Z,11.13
2023-03-16T11:32:14.118Z,11.18
2023-03-16T11:33:12.740Z,11.21
2023-03-16T11:34:12.699Z,11.21
2023-03-16T11:35:12.710Z,11.15
2023-03-16T11:36:12.769Z,11.16
2023-03-16T11:37:12.722Z,11.12
2023-03-16T11:38:12.730Z,11.07
2023-03-16T11:39:12.782Z,11.01
2023-03-16T11:40:12.746Z,10.95
2023-03-16T11:41:12.764Z,10.87
2023-03-16T11:42:12.770Z,10.90
2023-03-16T11:43:12.778Z,10.86
2023-03-16T11:44:16.409Z,10.88
2023-03-16T11:45:12.801Z,10.88
2023-03-16T11:46:12.853Z,10.86
2023-03-16T11:47:12.819Z,10.87
2023-03-16T11:48:12.826Z,10.87
2023-03-16T11:49:12.835Z,10.84
2023-03-16T11:50:12.838Z,10.88
2023-03-16T11:51:12.859Z,10.92
2023-03-16T11:52:12.858Z,10.98
2023-03-16T11:53:12.862Z,11.07
2023-03-16T11:54:12.871Z,11.11
2023-03-16T11:55:12.879Z,11.17
2023-03-16T11:56:12.885Z,11.20
2023-03-16T11:57:12.904Z,11.29
2023-03-16T11:58:12.910Z,11.29
2023-03-16T11:59:12.920Z,11.30
2023-03-16T12:00:12.942Z,11.33
2023-03-16T12:01:12.937Z,11.36
2023-03-16T12:02:12.963Z,11.39
2023-03-16T12:03:12.963Z,11.39
2023-03-16T12:04:13.020Z,11.41
2023-03-16T12:05:12.971Z,11.43
2023-03-16T12:06:22.294Z,11.41
2023-03-16T12:07:12.984Z,11.41
2023-03-16T12:08:12.995Z,11.37
2023-03-16T12:09:12.997Z,11.30
2023-03-16T12:10:13.000Z,11.30
2023-03-16T12:11:13.014Z,11.21
2023-03-16T12:12:13.021Z,11.16
2023-03-16T12:13:13.027Z,11.12
2023-03-16T12:14:13.034Z,11.11
2023-03-16T12:15:13.046Z,11.11
2023-03-16T12:16:13.116Z,11.15
2023-03-16T12:17:13.070Z,11.19
2023-03-16T12:18:13.077Z,11.23
2023-03-16T12:19:13.074Z,11.26
2023-03-16T12:20:13.081Z,11.26
2023-03-16T12:21:13.086Z,11.23
2023-03-16T12:22:13.093Z,11.17
2023-03-16T12:23:13.101Z,11.10
2023-03-16T12:24:13.112Z,11.12
2023-03-16T12:25:13.120Z,11.07
2023-03-16T12:26:13.135Z,11.02
2023-03-16T12:27:13.134Z,11.03
2023-03-16T12:28:13.145Z,11.05
2023-03-16T12:29:13.155Z,11.05
2023-03-16T12:30:13.199Z,11.12
2023-03-16T12:31:13.194Z,11.16
2023-03-16T12:32:13.211Z,11.18
2023-03-16T12:33:13.185Z,11.24
2023-03-16T12:34:13.202Z,11.30
2023-03-16T12:35:13.199Z,11.35
2023-03-16T12:36:13.259Z,11.40
2023-03-16T12:37:13.226Z,11.41
2023-03-16T12:38:13.226Z,11.41
2023-03-16T12:39:13.234Z,11.41
2023-03-16T12:40:13.361Z,11.43
2023-03-16T12:41:13.245Z,11.39
2023-03-16T12:42:13.257Z,11.38
2023-03-16T12:43:13.273Z,11.37
2023-03-16T12:44:13.349Z,11.28
2023-03-16T12:45:13.299Z,11.19
2023-03-16T12:46:13.333Z,11.18
2023-03-16T12:47:13.304Z,11.16
2023-03-16T12:48:13.308Z,11.10
2023-03-16T12:49:13.318Z,11.09
2023-03-16T12:50:13.345Z,11.07
2023-03-16T12:51:13.334Z,11.06
2023-03-16T12:52:13.341Z,11.10
2023-03-16T12:53:13.353Z,11.12
2023-03-16T12:54:13.355Z,11.17
2023-03-16T12:55:13.369Z,11.20
2023-03-16T12:56:13.385Z,11.24
2023-03-16T12:57:13.377Z,11.30
2023-03-16T12:58:13.389Z,11.35
2023-03-16T12:59:13.396Z,11.37
2023-03-16T13:00:13.404Z,11.37
2023-03-16T13:01:13.422Z,11.43
2023-03-16T13:02:13.421Z,11.49
2023-03-16T13:03:13.431Z,11.49
2023-03-16T13:04:13.524Z,11.51
2023-03-16T13:05:13.448Z,11.55
2023-03-16T13:06:13.456Z,11.62
2023-03-16T13:07:13.468Z,11.64
2023-03-16T13:08:13.479Z,11.67
2023-03-16T13:09:13.489Z,11.71
2023-03-16T13:10:13.492Z,11.65
2023-03-16T13:11:13.501Z,11.63
2023-03-16T13:12:14.765Z,11.55
2023-03-16T13:13:13.511Z,11.50
2023-03-16T13:14:13.526Z,11.44
2023-03-16T13:15:13.533Z,11.44
2023-03-16T13:16:13.561Z,11.40
2023-03-16T13:17:13.563Z,11.45
2023-03-16T13:18:13.551Z,11.46
2023-03-16T13:19:13.558Z,11.49
2023-03-16T13:20:18.190Z,11.49